Hauptseite
METAR-TAF:

METAR-TAF

Flughäfen :

Flughafen Bahrain

Bahrain, Bahrain

Breite: 26-16N, Länge: 050-39E, Höhe: 2 m

Beobachtung

Neuester Wetterbericht von vor 23 Minuten, um 05:00 UTC
Wind 8 kt aus West/Nordwest
Temperatur 26°C
Luftfeuchtigkeit 58%
Luftdruck 1017 hPa
Sichtweite 10 km oder mehr
Leicht bewölkt in der Höhe von 4000 ft

METAR: OBBI 120500Z 29008KT 9999 FEW040 26/17 Q1017 NOSIG

Zeit: 08:23 (05:23 UTC)

Prognose

Neuester Wetterbericht von vor 6 Stunden und 23 Minuten, um 23:00 UTC
Gültige Prognose vom 12 um 00 UTC bis 13 um 06 UTC
Wind 3 kt aus unterschiedlichen Richtungen
Sichtweite 10 km oder mehr
Leicht bewölkt in der Höhe von 2500 ft
Übergehend zu
vom 12 um 05 UTC bis 12 um 08 UTC
Wind 10 kt aus Nord
Übergehend zu
vom 12 um 19 UTC bis 12 um 22 UTC
Wind 3 kt aus unterschiedlichen Richtungen

TAF: OBBI 112300Z 1200/1306 VRB03KT 9999 FEW025 BECMG 1205/1208 01010KT BECMG 1219/1222 VRB03KT

Wetterbeobachtungen und Prognosen von mehr als 4000 Flughäfen (METAR und TAF Bericht).

Die verfügbaren Stationen werden durch gelbe und rote Markierungen auf der Karte dargestellt.

Führen Sie die Maus auf sie, um den Namen der Station zu sehen.

Darauf klicken, um die Beobachtung von Wetterbeobachtungen und Prognosen zu sehen.

Um die Karte zu ändern : klicken Sie auf den grünen Tasten mit einem schwarzen Kreuz Zum Vergrößern, auf den grünen Button mit einem Gedankenstrich zu verkleinern, oder auf die grünen Pfeile für benachbarte Karten.


METAR-TAF: